createdAt,value
2022-10-26T00:00:11.517Z,94380.28
2022-10-26T00:02:40.643Z,94370.59
2022-10-26T00:05:07.437Z,94364.59
2022-10-26T00:07:33.845Z,94360.31
2022-10-26T00:10:00.253Z,94361.09
2022-10-26T00:12:26.593Z,94359.13
2022-10-26T00:14:53.069Z,94364.25
2022-10-26T00:17:19.489Z,94349.03
2022-10-26T00:19:45.918Z,94355.22
2022-10-26T00:22:12.288Z,94363.53
2022-10-26T00:24:38.684Z,94375.06
2022-10-26T00:27:05.372Z,94367.97
2022-10-26T00:29:31.778Z,94370.31
2022-10-26T00:31:58.174Z,94367.38
2022-10-26T00:34:24.588Z,94365.25
2022-10-26T00:36:50.961Z,94379.56
2022-10-26T00:39:17.351Z,94381.88
2022-10-26T00:41:44.015Z,94368.34
2022-10-26T00:44:47.296Z,94378.50
2022-10-26T00:47:29.632Z,94369.13
2022-10-26T00:49:59.518Z,94365.09
2022-10-26T00:52:25.990Z,94368.63
2022-10-26T00:54:53.950Z,94358.66
2022-10-26T00:57:20.936Z,94371.75
2022-10-26T00:59:48.148Z,94372.19
2022-10-26T01:02:14.593Z,94365.41
2022-10-26T01:04:41.231Z,94362.34
2022-10-26T01:07:08.439Z,94362.34
2022-10-26T01:09:36.068Z,94356.84
2022-10-26T01:12:02.507Z,94362.06
2022-10-26T01:14:29.695Z,94363.59
2022-10-26T01:17:27.562Z,94362.53
2022-10-26T01:20:06.176Z,94348.22
2022-10-26T01:22:42.176Z,94358.94
2022-10-26T01:25:11.570Z,94361.88
2022-10-26T01:27:44.684Z,94357.44
2022-10-26T01:30:21.942Z,94358.66
2022-10-26T01:33:03.612Z,94368.81
2022-10-26T01:35:43.314Z,94357.28
2022-10-26T01:38:32.870Z,94355.56
2022-10-26T01:41:17.021Z,94356.78
2022-10-26T01:43:50.637Z,94356.78
2022-10-26T01:48:54.165Z,94362.00
2022-10-26T01:51:22.141Z,94343.53
2022-10-26T01:53:48.508Z,94356.66
2022-10-26T01:56:27.234Z,94347.72
2022-10-26T01:59:09.565Z,94343.25
2022-10-26T02:01:47.794Z,94344.50
2022-10-26T02:04:47.858Z,94340.06
2022-10-26T02:07:21.327Z,94342.38
2022-10-26T02:10:06.968Z,94336.06
2022-10-26T02:13:22.654Z,94319.31
2022-10-26T02:16:05.419Z,94309.34
2022-10-26T02:18:38.022Z,94306.72
2022-10-26T02:21:09.180Z,94318.56
2022-10-26T02:23:39.732Z,94319.31
2022-10-26T02:26:09.328Z,94312.53
2022-10-26T02:28:45.500Z,94307.56
2022-10-26T02:31:14.966Z,94308.00
2022-10-26T02:33:46.866Z,94313.66
2022-10-26T02:36:18.140Z,94318.38
2022-10-26T02:38:46.022Z,94322.22
2022-10-26T02:41:14.123Z,94334.31
2022-10-26T02:43:50.613Z,94328.88
2022-10-26T02:46:20.780Z,94333.84
2022-10-26T02:48:47.338Z,94337.22
2022-10-26T02:51:25.021Z,94325.41
2022-10-26T02:53:59.835Z,94324.50
2022-10-26T02:56:36.522Z,94320.53
2022-10-26T02:59:07.728Z,94328.84
2022-10-26T03:01:34.385Z,94321.91
2022-10-26T03:04:01.089Z,94323.38
2022-10-26T03:06:27.557Z,94330.84
2022-10-26T03:08:53.997Z,94335.31
2022-10-26T03:11:20.465Z,94344.50
2022-10-26T03:13:46.856Z,94353.31
2022-10-26T03:16:13.328Z,94349.72
2022-10-26T03:18:39.886Z,94341.41
2022-10-26T03:21:06.330Z,94342.78
2022-10-26T03:23:32.748Z,94335.84
2022-10-26T03:26:00.054Z,94345.19
2022-10-26T03:28:27.260Z,94353.81
2022-10-26T03:30:53.677Z,94354.59
2022-10-26T03:33:21.557Z,94357.41
2022-10-26T03:35:56.995Z,94361.25
2022-10-26T03:38:23.641Z,94376.94
2022-10-26T03:40:50.068Z,94378.75
2022-10-26T03:43:16.514Z,94385.94
2022-10-26T03:45:42.932Z,94392.72
2022-10-26T03:48:09.503Z,94372.56
2022-10-26T03:50:35.886Z,94396.28
2022-10-26T03:53:02.316Z,94396.59
2022-10-26T03:55:28.690Z,94404.56
2022-10-26T03:57:55.072Z,94398.59
2022-10-26T04:00:21.536Z,94411.16
2022-10-26T04:02:54.797Z,94407.03
2022-10-26T04:05:21.379Z,94420.38
2022-10-26T04:07:58.565Z,94433.25
2022-10-26T04:10:26.750Z,94439.06
2022-10-26T04:12:54.409Z,94418.34
2022-10-26T04:15:21.550Z,94436.94
2022-10-26T04:17:48.732Z,94421.84
2022-10-26T04:20:15.578Z,94426.78
2022-10-26T04:22:41.991Z,94418.47
2022-10-26T04:25:08.752Z,94424.66
2022-10-26T04:27:35.511Z,94421.47
2022-10-26T04:30:02.162Z,94420.88
2022-10-26T04:32:28.536Z,94425.50
2022-10-26T04:34:55.235Z,94431.41
2022-10-26T04:37:21.637Z,94439.72
2022-10-26T04:39:48.022Z,94427.16
2022-10-26T04:42:14.415Z,94428.69
2022-10-26T04:44:40.801Z,94435.66
2022-10-26T04:47:07.155Z,94431.19
2022-10-26T04:49:33.538Z,94384.34
2022-10-26T04:51:59.910Z,94357.47
2022-10-26T04:54:26.284Z,94359.78
2022-10-26T04:56:52.684Z,94362.69
2022-10-26T04:59:19.128Z,94370.34
2022-10-26T05:01:45.614Z,94382.63
2022-10-26T05:04:12.192Z,94407.03
2022-10-26T05:06:38.725Z,94416.69
2022-10-26T05:09:05.320Z,94411.84
2022-10-26T05:11:31.708Z,94407.22
2022-10-26T05:13:58.096Z,94400.16
2022-10-26T05:16:24.521Z,94401.84
2022-10-26T05:18:50.889Z,94403.19
2022-10-26T05:21:19.643Z,94418.09
2022-10-26T05:23:55.191Z,94416.53
2022-10-26T05:26:23.250Z,94412.66
2022-10-26T05:28:51.441Z,94420.31
2022-10-26T05:31:17.831Z,94423.50
2022-10-26T05:33:44.234Z,94415.19
2022-10-26T05:36:10.642Z,94418.09
2022-10-26T05:38:36.995Z,94421.75
2022-10-26T05:41:03.408Z,94431.16
2022-10-26T05:43:30.265Z,94430.38
2022-10-26T05:45:56.637Z,94433.56
2022-10-26T05:48:23.040Z,94438.69
2022-10-26T05:50:49.458Z,94435.03
2022-10-26T05:53:15.876Z,94432.09
2022-10-26T05:55:43.070Z,94422.75
2022-10-26T05:58:11.031Z,94426.41
2022-10-26T06:00:42.192Z,94432.41
2022-10-26T06:03:36.388Z,94433.94
2022-10-26T06:06:07.263Z,94430.84
2022-10-26T06:08:34.252Z,94436.06
2022-10-26T06:11:01.266Z,94445.94
2022-10-26T06:13:27.999Z,94449.81
2022-10-26T06:16:15.658Z,94454.44
2022-10-26T06:19:02.084Z,94460.13
2022-10-26T06:21:52.002Z,94458.31
2022-10-26T06:24:33.877Z,94458.31
2022-10-26T06:27:31.472Z,94455.44
2022-10-26T06:30:07.002Z,94457.25
2022-10-26T06:32:33.954Z,94462.16
2022-10-26T06:35:27.864Z,94479.69
2022-10-26T06:37:56.840Z,94459.47
2022-10-26T06:40:24.074Z,94466.91
2022-10-26T06:42:50.694Z,94474.44
2022-10-26T06:45:17.975Z,94469.22
2022-10-26T06:47:49.985Z,94476.41
2022-10-26T06:50:38.133Z,94479.97
2022-10-26T06:53:16.716Z,94472.81
2022-10-26T06:55:45.368Z,94474.72
2022-10-26T06:58:17.093Z,94472.97
2022-10-26T07:00:46.506Z,94476.72
2022-10-26T07:03:12.917Z,94477.09
2022-10-26T07:05:39.385Z,94476.56
2022-10-26T07:08:06.051Z,94486.34
2022-10-26T07:10:35.032Z,94488.47
2022-10-26T07:13:01.397Z,94483.00
2022-10-26T07:15:27.744Z,94489.25
2022-10-26T07:17:54.216Z,94498.41
2022-10-26T07:20:21.398Z,94501.38
2022-10-26T07:22:55.934Z,94502.03
2022-10-26T07:25:23.499Z,94512.84
2022-10-26T07:27:50.070Z,94514.25
2022-10-26T07:30:17.216Z,94511.53
2022-10-26T07:32:44.445Z,94501.06
2022-10-26T07:35:11.167Z,94515.75
2022-10-26T07:37:37.646Z,94526.06
2022-10-26T07:40:06.484Z,94517.34
2022-10-26T07:42:33.044Z,94521.34
2022-10-26T07:44:59.386Z,94528.00
2022-10-26T07:47:25.814Z,94530.03
2022-10-26T07:49:52.196Z,94522.63
2022-10-26T07:52:18.570Z,94539.50
2022-10-26T07:54:44.997Z,94534.91
2022-10-26T07:57:11.350Z,94536.69
2022-10-26T07:59:37.880Z,94545.34
2022-10-26T08:02:04.367Z,94545.97
2022-10-26T08:04:30.783Z,94538.75
2022-10-26T08:06:57.238Z,94539.72
2022-10-26T08:09:23.682Z,94550.53
2022-10-26T08:11:50.058Z,94552.25
2022-10-26T08:14:16.421Z,94554.88
2022-10-26T08:16:42.853Z,94553.50
2022-10-26T08:19:09.337Z,94553.66
2022-10-26T08:21:39.539Z,94542.88
2022-10-26T08:24:06.733Z,94550.44
2022-10-26T08:26:33.226Z,94552.34
2022-10-26T08:28:59.578Z,94557.09
2022-10-26T08:31:26.038Z,94554.00
2022-10-26T08:33:52.480Z,94549.66
2022-10-26T08:36:25.499Z,94552.78
2022-10-26T08:38:52.559Z,94545.97
2022-10-26T08:41:31.165Z,94552.16
2022-10-26T08:44:06.607Z,94554.16
2022-10-26T08:46:39.878Z,94547.03
2022-10-26T08:49:24.193Z,94550.28
2022-10-26T08:51:54.919Z,94557.25
2022-10-26T08:54:36.120Z,94557.06
2022-10-26T08:57:13.159Z,94559.69
2022-10-26T08:59:56.330Z,94560.16
2022-10-26T09:02:23.995Z,94568.81
2022-10-26T09:04:51.933Z,94566.63
2022-10-26T09:07:47.775Z,94562.94
2022-10-26T09:10:40.507Z,94565.25
2022-10-26T09:13:34.529Z,94569.72
2022-10-26T09:16:16.019Z,94570.66
2022-10-26T09:19:03.434Z,94576.84
2022-10-26T09:22:07.450Z,94573.75
2022-10-26T09:24:39.549Z,94580.09
2022-10-26T09:27:32.546Z,94581.63
2022-10-26T09:30:04.318Z,94582.13
2022-10-26T09:32:44.445Z,94584.13
2022-10-26T09:35:24.895Z,94592.91
2022-10-26T09:38:13.572Z,94594.63
2022-10-26T09:40:54.839Z,94585.78
2022-10-26T09:43:25.040Z,94591.50
2022-10-26T09:45:52.305Z,94601.53
2022-10-26T09:48:27.447Z,94600.41
2022-10-26T09:50:53.927Z,94597.44
2022-10-26T09:53:20.298Z,94604.22
2022-10-26T09:55:49.444Z,94610.56
2022-10-26T09:58:29.692Z,94610.97
2022-10-26T10:00:57.453Z,94622.25
2022-10-26T10:03:29.454Z,94623.28
2022-10-26T10:06:26.581Z,94628.38
2022-10-26T10:09:06.376Z,94628.53
2022-10-26T10:12:03.682Z,94619.38
2022-10-26T10:14:36.116Z,94638.72
2022-10-26T10:17:22.566Z,94632.16
2022-10-26T10:19:49.470Z,94633.84
2022-10-26T10:22:15.813Z,94632.56
2022-10-26T10:24:52.630Z,94631.44
2022-10-26T10:27:19.167Z,94630.16
2022-10-26T10:29:51.466Z,94635.69
2022-10-26T10:32:27.721Z,94639.34
2022-10-26T10:34:56.026Z,94643.97
2022-10-26T10:37:36.256Z,94647.31
2022-10-26T10:40:04.804Z,94643.84
2022-10-26T10:42:34.128Z,94650.25
2022-10-26T10:45:02.409Z,94626.97
2022-10-26T10:47:31.594Z,94644.38
2022-10-26T10:50:04.670Z,94643.00
2022-10-26T10:52:34.100Z,94643.28
2022-10-26T10:55:21.789Z,94648.59
2022-10-26T10:58:09.758Z,94649.84
2022-10-26T11:00:37.814Z,94650.28
2022-10-26T11:03:25.038Z,94649.28
2022-10-26T11:06:14.988Z,94654.31
2022-10-26T11:08:47.636Z,94654.53
2022-10-26T11:11:23.122Z,94653.44
2022-10-26T11:14:06.258Z,94646.84
2022-10-26T11:16:37.485Z,94650.16
2022-10-26T11:19:46.045Z,94652.31
2022-10-26T11:22:20.729Z,94649.31
2022-10-26T11:24:51.306Z,94658.34
2022-10-26T11:27:24.498Z,94654.50
2022-10-26T11:30:03.248Z,94653.69
2022-10-26T11:32:40.947Z,94651.72
2022-10-26T11:35:13.257Z,94650.78
2022-10-26T11:37:57.762Z,94652.03
2022-10-26T11:40:49.883Z,94653.16
2022-10-26T11:43:30.825Z,94663.56
2022-10-26T11:46:15.260Z,94660.03
2022-10-26T11:49:20.322Z,94668.50
2022-10-26T11:52:03.035Z,94670.38
2022-10-26T11:54:37.376Z,94655.25
2022-10-26T11:57:05.015Z,94661.00
2022-10-26T11:59:37.495Z,94669.47
2022-10-26T12:02:11.200Z,94666.19
2022-10-26T12:04:38.870Z,94661.84
2022-10-26T12:07:15.652Z,94674.97
2022-10-26T12:09:43.966Z,94675.31
2022-10-26T12:12:22.643Z,94666.06
2022-10-26T12:14:49.446Z,94673.38
2022-10-26T12:17:49.002Z,94684.16
2022-10-26T12:20:53.225Z,94680.75
2022-10-26T12:23:33.844Z,94676.34
2022-10-26T12:26:28.467Z,94687.53
2022-10-26T12:29:13.308Z,94693.81
2022-10-26T12:31:39.615Z,94696.75
2022-10-26T12:34:46.183Z,94704.44
2022-10-26T12:37:42.008Z,94686.81
2022-10-26T12:40:32.401Z,94705.53
2022-10-26T12:43:14.170Z,94698.72
2022-10-26T12:45:42.072Z,94711.56
2022-10-26T12:48:38.768Z,94707.34
2022-10-26T12:51:18.902Z,94700.72
2022-10-26T12:53:57.521Z,94710.53
2022-10-26T12:56:47.163Z,94707.53
2022-10-26T12:59:30.095Z,94707.06
2022-10-26T13:02:31.528Z,94711.94
2022-10-26T13:05:19.832Z,94711.94
2022-10-26T13:07:46.836Z,94714.16
2022-10-26T13:10:13.171Z,94718.16
2022-10-26T13:12:42.328Z,94718.00
2022-10-26T13:15:29.223Z,94718.97
2022-10-26T13:18:09.199Z,94727.16
2022-10-26T13:20:51.142Z,94728.06
2022-10-26T13:23:26.247Z,94731.91
2022-10-26T13:26:12.612Z,94730.97
2022-10-26T13:28:38.997Z,94737.75
2022-10-26T13:31:23.766Z,94731.94
2022-10-26T13:33:54.103Z,94728.34
2022-10-26T13:36:32.974Z,94727.66
2022-10-26T13:39:06.169Z,94736.06
2022-10-26T13:41:36.690Z,94736.78
2022-10-26T13:44:06.095Z,94743.44
2022-10-26T13:46:38.971Z,94734.84
2022-10-26T13:49:23.076Z,94739.38
2022-10-26T13:51:51.986Z,94736.19
2022-10-26T13:54:25.163Z,94732.66
2022-10-26T13:57:01.734Z,94747.19
2022-10-26T13:59:30.114Z,94741.59
2022-10-26T14:02:14.648Z,94746.34
2022-10-26T14:04:41.249Z,94747.44
2022-10-26T14:07:17.677Z,94741.72
2022-10-26T14:09:44.286Z,94745.81
2022-10-26T14:12:11.483Z,94739.75
2022-10-26T14:14:38.958Z,94750.88
2022-10-26T14:17:05.917Z,94751.63
2022-10-26T14:19:38.048Z,94749.78
2022-10-26T14:22:04.884Z,94749.53
2022-10-26T14:24:46.902Z,94758.22
2022-10-26T14:27:22.673Z,94753.78
2022-10-26T14:30:16.873Z,94754.44
2022-10-26T14:32:37.589Z,94749.41
2022-10-26T14:35:04.270Z,94754.88
2022-10-26T14:37:58.848Z,94757.25
2022-10-26T14:40:29.771Z,94761.75
2022-10-26T14:42:57.717Z,94763.00
2022-10-26T14:45:48.546Z,94765.44
2022-10-26T14:48:22.812Z,94771.38
2022-10-26T14:51:00.058Z,94774.34
2022-10-26T14:53:40.919Z,94774.94
2022-10-26T14:56:21.484Z,94773.53
2022-10-26T14:58:47.997Z,94776.31
2022-10-26T15:01:16.491Z,94782.16
2022-10-26T15:03:44.807Z,94772.22
2022-10-26T15:06:29.685Z,94778.66
2022-10-26T15:08:58.052Z,94785.75
2022-10-26T15:11:25.882Z,94786.44
2022-10-26T15:13:53.701Z,94785.00
2022-10-26T15:16:26.624Z,94783.88
2022-10-26T15:18:58.315Z,94786.81
2022-10-26T15:21:29.508Z,94789.81
2022-10-26T15:23:56.801Z,94789.25
2022-10-26T15:26:25.491Z,94793.38
2022-10-26T15:28:53.408Z,94796.41
2022-10-26T15:31:19.765Z,94794.31
2022-10-26T15:33:49.171Z,94804.09
2022-10-26T15:36:21.585Z,94807.56
2022-10-26T15:38:48.494Z,94810.56
2022-10-26T15:41:25.942Z,94807.31
2022-10-26T15:43:56.554Z,94810.22
2022-10-26T15:46:24.312Z,94812.72
2022-10-26T15:48:58.786Z,94814.09
2022-10-26T15:51:25.960Z,94818.75
2022-10-26T15:53:52.424Z,94823.50
2022-10-26T15:56:23.384Z,94830.34
2022-10-26T15:58:50.108Z,94829.84
2022-10-26T16:01:19.544Z,94839.41
2022-10-26T16:03:46.350Z,94834.22
2022-10-26T16:06:18.464Z,94837.09
2022-10-26T16:08:53.394Z,94844.53
2022-10-26T16:11:19.793Z,94845.59
2022-10-26T16:13:46.289Z,94854.00
2022-10-26T16:16:14.485Z,94845.06
2022-10-26T16:18:41.292Z,94851.72
2022-10-26T16:21:12.352Z,94855.06
2022-10-26T16:23:39.227Z,94861.78
2022-10-26T16:26:05.975Z,94867.09
2022-10-26T16:28:32.718Z,94876.56
2022-10-26T16:31:13.704Z,94867.63
2022-10-26T16:33:40.107Z,94876.28
2022-10-26T16:36:07.308Z,94870.16
2022-10-26T16:38:34.338Z,94872.25
2022-10-26T16:41:02.280Z,94868.25
2022-10-26T16:43:31.123Z,94880.38
2022-10-26T16:45:57.546Z,94888.66
2022-10-26T16:48:24.006Z,94884.63
2022-10-26T16:50:50.449Z,94887.72
2022-10-26T16:53:16.942Z,94886.06
2022-10-26T16:55:44.178Z,94890.72
2022-10-26T16:58:10.637Z,94889.47
2022-10-26T17:00:37.626Z,94884.09
2022-10-26T17:03:04.343Z,94891.50
2022-10-26T17:05:30.710Z,94891.81
2022-10-26T17:07:57.085Z,94895.53
2022-10-26T17:10:23.652Z,94905.44
2022-10-26T17:12:50.354Z,94901.41
2022-10-26T17:15:19.783Z,94902.44
2022-10-26T17:17:47.053Z,94908.00
2022-10-26T17:20:13.502Z,94921.72
2022-10-26T17:22:39.907Z,94924.31
2022-10-26T17:25:06.526Z,94916.91
2022-10-26T17:27:32.909Z,94927.56
2022-10-26T17:29:59.285Z,94928.59
2022-10-26T17:32:25.646Z,94938.88
2022-10-26T17:34:52.018Z,94939.47
2022-10-26T17:37:18.448Z,94931.06
2022-10-26T17:39:44.807Z,94936.91
2022-10-26T17:42:11.188Z,94930.22
2022-10-26T17:44:39.028Z,94935.91
2022-10-26T17:47:05.526Z,94944.06
2022-10-26T17:49:35.814Z,94948.34
2022-10-26T17:52:02.535Z,94960.69
2022-10-26T17:54:28.890Z,94964.69
2022-10-26T17:56:55.254Z,94963.16
2022-10-26T17:59:21.615Z,94962.66
2022-10-26T18:01:48.071Z,94966.84
2022-10-26T18:04:14.494Z,94973.16
2022-10-26T18:06:40.887Z,94972.88
2022-10-26T18:09:07.258Z,94981.81
2022-10-26T18:11:33.693Z,94974.25
2022-10-26T18:14:00.090Z,94985.34
2022-10-26T18:16:27.759Z,94978.38
2022-10-26T18:19:01.577Z,94992.56
2022-10-26T18:21:30.214Z,94993.94
2022-10-26T18:23:56.788Z,94995.31
2022-10-26T18:26:26.387Z,94994.50
2022-10-26T18:28:52.899Z,94997.63
2022-10-26T18:31:22.406Z,94995.00
2022-10-26T18:33:49.032Z,94991.41
2022-10-26T18:36:19.050Z,94986.75
2022-10-26T18:38:48.623Z,95003.09
2022-10-26T18:41:16.893Z,94986.03
2022-10-26T18:43:45.535Z,94997.50
2022-10-26T18:46:17.684Z,95006.56
2022-10-26T18:48:47.161Z,94998.09
2022-10-26T18:51:15.882Z,95006.09
2022-10-26T18:53:43.688Z,95008.03
2022-10-26T18:56:12.994Z,95011.84
2022-10-26T18:58:44.361Z,95011.66
2022-10-26T19:01:16.231Z,95018.25
2022-10-26T19:03:43.368Z,95009.25
2022-10-26T19:06:15.876Z,95014.16
2022-10-26T19:08:43.197Z,95020.19
2022-10-26T19:11:13.340Z,95018.34
2022-10-26T19:13:40.066Z,95030.84
2022-10-26T19:16:21.702Z,95025.13
2022-10-26T19:18:55.749Z,95029.13
2022-10-26T19:21:23.300Z,95033.09
2022-10-26T19:23:52.020Z,95032.22
2022-10-26T19:26:22.017Z,95034.63
2022-10-26T19:28:55.142Z,95032.84
2022-10-26T19:31:26.236Z,95048.41
2022-10-26T19:33:56.241Z,95046.84
2022-10-26T19:36:22.855Z,95044.53
2022-10-26T19:38:49.363Z,95041.91
2022-10-26T19:41:16.371Z,95047.41
2022-10-26T19:43:43.662Z,95048.97
2022-10-26T19:46:11.591Z,95039.56
2022-10-26T19:48:38.924Z,95050.03
2022-10-26T19:51:06.008Z,95044.88
2022-10-26T19:53:32.687Z,95051.75
2022-10-26T19:56:01.394Z,95051.28
2022-10-26T19:58:31.203Z,95052.63
2022-10-26T20:01:02.422Z,95044.78
2022-10-26T20:03:29.399Z,95046.91
2022-10-26T20:06:07.965Z,95050.66
2022-10-26T20:08:36.008Z,95050.28
2022-10-26T20:11:02.759Z,95059.75
2022-10-26T20:13:29.211Z,95060.34
2022-10-26T20:15:55.898Z,95053.25
2022-10-26T20:18:22.421Z,95057.72
2022-10-26T20:20:48.942Z,95062.06
2022-10-26T20:23:15.493Z,95066.47
2022-10-26T20:25:50.410Z,95062.28
2022-10-26T20:28:18.845Z,95066.25
2022-10-26T20:30:47.572Z,95071.00
2022-10-26T20:33:14.385Z,95068.41
2022-10-26T20:35:40.964Z,95065.78
2022-10-26T20:38:17.350Z,95069.94
2022-10-26T20:40:44.450Z,95065.88
2022-10-26T20:43:17.493Z,95063.59
2022-10-26T20:45:44.439Z,95069.97
2022-10-26T20:48:11.702Z,95082.56
2022-10-26T20:50:40.163Z,95080.25
2022-10-26T20:53:26.505Z,95074.72
2022-10-26T20:55:59.366Z,95082.88
2022-10-26T20:58:37.836Z,95088.13
2022-10-26T21:01:31.794Z,95083.16
2022-10-26T21:04:00.248Z,95088.16
2022-10-26T21:06:27.336Z,95090.28
2022-10-26T21:08:55.441Z,95083.78
2022-10-26T21:11:23.283Z,95078.84
2022-10-26T21:13:50.322Z,95088.31
2022-10-26T21:16:17.335Z,95088.41
2022-10-26T21:18:44.083Z,95081.97
2022-10-26T21:21:10.721Z,95091.16
2022-10-26T21:23:39.066Z,95090.16
2022-10-26T21:26:06.331Z,95087.63
2022-10-26T21:28:41.616Z,95089.16
2022-10-26T21:31:10.431Z,95094.13
2022-10-26T21:33:37.059Z,95088.88
2022-10-26T21:36:05.736Z,95093.06
2022-10-26T21:38:33.073Z,95094.13
2022-10-26T21:41:10.433Z,95096.25
2022-10-26T21:43:38.341Z,95101.53
2022-10-26T21:46:05.615Z,95094.25
2022-10-26T21:48:33.502Z,95088.25
2022-10-26T21:51:07.808Z,95089.22
2022-10-26T21:53:34.327Z,95087.63
2022-10-26T21:56:06.472Z,95090.72
2022-10-26T21:58:32.889Z,95091.03
2022-10-26T22:01:07.651Z,95089.94
2022-10-26T22:03:34.705Z,95097.78
2022-10-26T22:06:01.633Z,95099.63
2022-10-26T22:08:28.583Z,95094.38
2022-10-26T22:10:55.564Z,95099.69
2022-10-26T22:13:22.047Z,95109.81
2022-10-26T22:15:48.663Z,95104.88
2022-10-26T22:18:15.264Z,95099.50
2022-10-26T22:20:41.671Z,95097.97
2022-10-26T22:23:08.857Z,95093.44
2022-10-26T22:25:35.272Z,95101.84
2022-10-26T22:28:01.671Z,95100.56
2022-10-26T22:30:28.039Z,95096.13
2022-10-26T22:32:54.438Z,95096.91
2022-10-26T22:35:36.091Z,95093.78
2022-10-26T22:38:02.486Z,95098.78
2022-10-26T22:40:28.889Z,95099.91
2022-10-26T22:42:55.253Z,95102.25
2022-10-26T22:45:21.608Z,95103.00
2022-10-26T22:47:48.010Z,95109.78
2022-10-26T22:50:14.471Z,95109.00
2022-10-26T22:52:40.857Z,95109.78
2022-10-26T22:55:07.696Z,95105.34
2022-10-26T22:57:34.084Z,95106.41
2022-10-26T23:00:00.444Z,95101.47
2022-10-26T23:02:26.891Z,95110.84
2022-10-26T23:04:53.288Z,95103.78
2022-10-26T23:07:19.690Z,95107.72
2022-10-26T23:09:46.061Z,95106.94
2022-10-26T23:12:12.429Z,95109.06
2022-10-26T23:14:38.779Z,95112.53
2022-10-26T23:17:06.109Z,95104.72
2022-10-26T23:19:32.490Z,95115.47
2022-10-26T23:21:58.875Z,95110.53
2022-10-26T23:24:25.235Z,95099.00
2022-10-26T23:26:51.590Z,95101.34
2022-10-26T23:29:17.968Z,95100.56
2022-10-26T23:31:44.322Z,95099.28
2022-10-26T23:34:10.685Z,95096.38
2022-10-26T23:36:37.068Z,95098.72
2022-10-26T23:39:03.488Z,95102.09
2022-10-26T23:41:29.901Z,95104.22
2022-10-26T23:43:56.307Z,95102.44
2022-10-26T23:46:22.741Z,95100.69
2022-10-26T23:48:49.128Z,95093.34
2022-10-26T23:51:15.512Z,95100.88
2022-10-26T23:53:41.898Z,95090.53
2022-10-26T23:56:08.273Z,95102.75
2022-10-26T23:58:34.740Z,95100.19
